Time;durP1;ratioP1;P1;durP2;ratioP2;P2;SDS_P1;SDS_P2;PMS_P1;PMS_P2;Temp;Humidity;BMP_temperature;BMP_pressure;BME280_temperature;BME280_humidity;BME280_pressure;Samples;Min_cycle;Max_cycle;Signal;HPM_P1;HPM_P2
2022/12/10 00:01:32;;;;;;;21.48;6.95;;;13.10;99.90;;;;;;5095416;28;20298;-51
2022/12/10 00:03:58;;;;;;;16.58;6.00;;;13.10;99.90;;;;;;5100401;28;20419;-52
2022/12/10 00:06:28;;;;;;;19.23;8.18;;;13.00;99.90;;;;;;5093300;28;20072;-52
2022/12/10 00:08:54;;;;;;;23.02;9.18;;;13.00;99.90;;;;;;5095292;28;20054;-52
2022/12/10 00:11:22;;;;;;;18.60;8.20;;;13.00;99.90;;;;;;5100711;28;20455;-52
2022/12/10 00:13:49;;;;;;;16.63;7.68;;;13.00;99.90;;;;;;5098222;28;20032;-51
2022/12/10 00:16:17;;;;;;;16.98;6.88;;;13.00;99.90;;;;;;5099272;28;20466;-52
2022/12/10 00:18:43;;;;;;;16.05;6.72;;;13.10;99.90;;;;;;5102156;28;20085;-52
2022/12/10 00:21:11;;;;;;;12.07;5.93;;;13.10;99.90;;;;;;5094492;28;20039;-51
2022/12/10 00:23:37;;;;;;;15.20;6.10;;;13.10;99.90;;;;;;5101134;28;20027;-51
2022/12/10 00:26:13;;;;;;;19.27;6.13;;;13.10;99.90;;;;;;5102009;28;20069;-51
2022/12/10 00:28:39;;;;;;;16.27;6.32;;;13.10;99.90;;;;;;5094323;28;20065;-51
2022/12/10 00:31:23;;;;;;;11.85;5.75;;;13.10;99.90;;;;;;5104118;28;20023;-51
2022/12/10 00:33:50;;;;;;;15.18;5.38;;;12.90;99.90;;;;;;5096444;28;20058;-52
2022/12/10 00:36:19;;;;;;;11.77;5.80;;;12.90;99.90;;;;;;5093325;28;20119;-51
2022/12/10 00:38:46;;;;;;;17.38;5.32;;;12.90;99.90;;;;;;5098451;28;20101;-52
2022/12/10 00:41:13;;;;;;;17.17;5.03;;;13.00;99.90;;;;;;5095594;28;20483;-52
2022/12/10 00:43:39;;;;;;;13.13;5.32;;;13.10;99.90;;;;;;5102019;28;20126;-51
2022/12/10 00:46:05;;;;;;;12.93;4.38;;;13.10;99.90;;;;;;5100650;28;20039;-52
2022/12/10 00:48:31;;;;;;;9.98;4.38;;;13.00;99.90;;;;;;5094799;28;20044;-52
2022/12/10 00:51:01;;;;;;;10.27;4.25;;;13.10;99.90;;;;;;5099267;28;20476;-51
2022/12/10 00:53:28;;;;;;;12.27;5.22;;;13.20;99.90;;;;;;5100370;28;20101;-51
2022/12/10 00:55:54;;;;;;;10.73;4.60;;;13.10;99.90;;;;;;5097536;28;20028;-51
2022/12/10 00:58:20;;;;;;;13.50;5.43;;;13.10;99.90;;;;;;5101526;28;20028;-51
2022/12/10 01:00:47;;;;;;;16.58;4.78;;;13.20;99.90;;;;;;5076980;28;20047;-51
2022/12/10 01:03:13;;;;;;;8.88;4.65;;;13.30;99.90;;;;;;5061858;28;20047;-51
2022/12/10 01:05:39;;;;;;;19.63;4.90;;;13.30;99.90;;;;;;5097738;28;20056;-51
2022/12/10 01:08:04;;;;;;;12.48;4.07;;;13.30;99.90;;;;;;5101681;28;20498;-50
2022/12/10 01:10:30;;;;;;;13.15;4.20;;;13.40;99.90;;;;;;5093666;28;20031;-51
2022/12/10 01:12:56;;;;;;;13.85;4.00;;;13.40;99.90;;;;;;5102593;28;20016;-50
2022/12/10 01:15:22;;;;;;;8.10;3.38;;;13.40;99.90;;;;;;5104683;28;20024;-52
2022/12/10 01:17:47;;;;;;;9.98;2.90;;;13.40;99.90;;;;;;5106019;28;20030;-51
2022/12/10 01:20:13;;;;;;;8.15;2.75;;;13.50;99.90;;;;;;5063600;28;20039;-51
2022/12/10 01:22:39;;;;;;;11.48;3.70;;;13.40;99.90;;;;;;5103052;28;20047;-51
2022/12/10 01:25:05;;;;;;;11.95;3.60;;;13.50;99.90;;;;;;5099969;28;20038;-51
2022/12/10 01:27:31;;;;;;;10.40;3.83;;;13.50;99.90;;;;;;5112273;28;20036;-52
2022/12/10 01:29:57;;;;;;;5.30;2.90;;;13.60;99.90;;;;;;5099386;28;20052;-51
2022/12/10 01:32:22;;;;;;;14.38;3.80;;;13.60;99.90;;;;;;5084808;28;20089;-51
2022/12/10 01:34:48;;;;;;;10.48;3.47;;;13.60;99.90;;;;;;5101911;28;20070;-51
2022/12/10 01:37:14;;;;;;;7.35;3.22;;;13.60;99.90;;;;;;5105861;28;20032;-52
2022/12/10 01:39:40;;;;;;;11.05;3.90;;;13.50;99.90;;;;;;5098104;28;20532;-51
2022/12/10 01:42:06;;;;;;;11.63;4.57;;;13.60;99.90;;;;;;5097283;28;20035;-51
2022/12/10 01:44:31;;;;;;;14.15;4.35;;;13.50;99.90;;;;;;5103656;28;20028;-51
2022/12/10 01:47:00;;;;;;;12.77;4.32;;;13.60;99.90;;;;;;5121629;27;20046;-51
2022/12/10 01:49:31;;;;;;;16.40;5.03;;;13.60;99.90;;;;;;5106250;28;20463;-51
2022/12/10 01:51:57;;;;;;;13.73;4.18;;;13.60;99.90;;;;;;5105916;28;20479;-51
2022/12/10 01:54:27;;;;;;;7.95;3.78;;;13.50;99.90;;;;;;5107429;28;20039;-51
2022/12/10 01:57:03;;;;;;;12.50;3.47;;;13.40;99.90;;;;;;5106239;28;20036;-51
2022/12/10 01:59:30;;;;;;;9.40;3.55;;;13.40;99.90;;;;;;5105233;28;20027;-51
2022/12/10 02:02:01;;;;;;;10.20;2.63;;;13.40;99.90;;;;;;5105171;28;20475;-51
2022/12/10 02:04:37;;;;;;;6.50;2.70;;;13.40;99.90;;;;;;5108311;28;20372;-51
2022/12/10 02:07:14;;;;;;;10.85;3.55;;;13.40;99.90;;;;;;5103702;28;20031;-52
2022/12/10 02:10:29;;;;;;;11.48;4.60;;;13.30;99.90;;;;;;5099502;28;20063;-52
2022/12/10 02:13:02;;;;;;;9.45;4.00;;;13.30;99.90;;;;;;5040614;28;20037;-51
2022/12/10 02:15:32;;;;;;;13.18;5.25;;;13.20;99.90;;;;;;5050062;28;20071;-51
2022/12/10 02:18:14;;;;;;;14.18;6.20;;;13.20;99.90;;;;;;5049514;28;20107;-51
2022/12/10 02:20:51;;;;;;;11.43;4.90;;;13.20;99.90;;;;;;5052917;28;20116;-51
2022/12/10 02:23:24;;;;;;;12.82;5.20;;;13.10;99.90;;;;;;5047387;28;20293;-52
2022/12/10 02:26:13;;;;;;;12.35;3.60;;;13.10;99.90;;;;;;5050624;28;20484;-51
2022/12/10 02:29:14;;;;;;;9.23;4.45;;;13.00;99.90;;;;;;5047434;28;20059;-51
2022/12/10 02:31:50;;;;;;;14.38;4.95;;;13.00;99.90;;;;;;5052421;28;20175;-51
2022/12/10 02:34:17;;;;;;;12.23;4.72;;;13.00;99.90;;;;;;5052209;28;20170;-51
2022/12/10 02:36:47;;;;;;;13.20;5.57;;;12.90;99.90;;;;;;5052473;28;20048;-51
2022/12/10 02:39:16;;;;;;;8.15;3.80;;;12.90;99.90;;;;;;5051771;28;20052;-51
2022/12/10 02:41:47;;;;;;;9.60;3.72;;;12.90;99.90;;;;;;5049088;28;20611;-51
2022/12/10 02:44:15;;;;;;;14.45;4.65;;;12.90;99.90;;;;;;5052258;28;20044;-51
2022/12/10 02:46:43;;;;;;;11.15;3.58;;;12.90;99.90;;;;;;5051521;28;20032;-51
2022/12/10 02:49:13;;;;;;;7.15;2.90;;;12.90;99.90;;;;;;5046896;28;20047;-51
2022/12/10 02:51:39;;;;;;;6.28;3.33;;;12.90;99.90;;;;;;5098535;28;20055;-51
2022/12/10 02:54:26;;;;;;;7.72;2.92;;;12.90;99.90;;;;;;5086656;28;20073;-51
2022/12/10 02:56:58;;;;;;;7.30;3.17;;;12.90;99.90;;;;;;5100141;28;20403;-51
2022/12/10 02:59:33;;;;;;;9.60;2.88;;;12.80;99.90;;;;;;5105689;28;20032;-51
2022/12/10 03:02:23;;;;;;;7.53;3.08;;;12.80;99.90;;;;;;5121106;27;20055;-51
2022/12/10 03:04:54;;;;;;;11.50;4.03;;;12.80;99.90;;;;;;5123373;27;20112;-51
2022/12/10 03:07:32;;;;;;;5.35;2.72;;;12.90;99.90;;;;;;5124611;27;20038;-51
2022/12/10 03:10:20;;;;;;;11.05;3.13;;;12.80;99.90;;;;;;5077042;27;20114;-54
2022/12/10 03:12:57;;;;;;;6.20;2.15;;;12.80;99.90;;;;;;5120451;27;20073;-52
2022/12/10 03:15:25;;;;;;;6.95;2.25;;;12.80;99.90;;;;;;5123470;27;20039;-52
2022/12/10 03:17:52;;;;;;;7.50;3.03;;;12.70;99.90;;;;;;5124874;27;20032;-52
2022/12/10 03:20:18;;;;;;;7.53;3.83;;;12.80;99.90;;;;;;5120311;27;20023;-52
2022/12/10 03:22:46;;;;;;;10.65;4.13;;;12.70;99.90;;;;;;5096244;27;20161;-52
2022/12/10 03:25:17;;;;;;;8.45;3.95;;;12.80;99.90;;;;;;5120235;27;20023;-52
2022/12/10 03:27:45;;;;;;;7.82;3.75;;;12.70;99.90;;;;;;5123171;27;20031;-52
2022/12/10 03:30:11;;;;;;;11.73;4.03;;;12.80;99.90;;;;;;5124459;27;20024;-51
2022/12/10 03:32:37;;;;;;;17.23;5.55;;;12.70;99.90;;;;;;5115462;27;20119;-51
2022/12/10 03:35:05;;;;;;;10.73;3.67;;;12.70;99.90;;;;;;5105419;28;20028;-51
2022/12/10 03:37:32;;;;;;;10.80;4.10;;;12.60;99.90;;;;;;5107597;28;20024;-51
2022/12/10 03:39:59;;;;;;;13.52;4.60;;;12.60;99.90;;;;;;5081647;28;20044;-52
2022/12/10 03:42:24;;;;;;;10.50;3.60;;;12.50;99.90;;;;;;5101300;28;20552;-52
2022/12/10 03:44:51;;;;;;;11.20;3.42;;;12.50;99.90;;;;;;5104682;28;20031;-51
2022/12/10 03:47:19;;;;;;;11.02;4.15;;;12.40;99.90;;;;;;5109469;28;20036;-51
2022/12/10 03:49:44;;;;;;;7.85;3.33;;;12.40;99.90;;;;;;5100807;28;20032;-52
2022/12/10 03:52:11;;;;;;;7.28;2.83;;;12.40;99.90;;;;;;5101476;28;20069;-51
2022/12/10 03:54:37;;;;;;;6.28;2.65;;;12.40;99.90;;;;;;5108866;28;20463;-51
2022/12/10 03:57:03;;;;;;;8.40;3.25;;;12.40;99.90;;;;;;5102882;28;20062;-51
2022/12/10 03:59:29;;;;;;;6.28;2.60;;;12.40;99.90;;;;;;5104445;28;20088;-51
2022/12/10 04:01:55;;;;;;;9.48;3.00;;;12.50;99.90;;;;;;5108266;28;20032;-52
2022/12/10 04:04:20;;;;;;;11.02;3.45;;;12.60;99.90;;;;;;5099479;28;20024;-52
2022/12/10 04:06:46;;;;;;;12.63;3.85;;;12.60;99.90;;;;;;5101607;28;20095;-52
2022/12/10 04:09:13;;;;;;;14.15;4.05;;;12.60;99.90;;;;;;5103582;28;20038;-51
2022/12/10 04:11:39;;;;;;;10.98;2.83;;;12.70;99.90;;;;;;5099054;28;20036;-52
2022/12/10 04:16:49;;;;;;;12.60;4.13;;;12.80;99.90;;;;;;5103027;28;20038;-52
2022/12/10 04:19:17;;;;;;;9.45;4.00;;;12.90;99.90;;;;;;5100598;28;20020;-51
2022/12/10 04:27:23;;;;;;;10.80;3.63;;;12.80;99.90;;;;;;5103819;28;20034;-52
2022/12/10 04:29:49;;;;;;;6.82;3.53;;;12.70;99.90;;;;;;5111493;27;20062;-52
2022/12/10 04:32:16;;;;;;;6.00;2.75;;;12.70;99.90;;;;;;5103373;28;20421;-52
2022/12/10 04:34:42;;;;;;;9.63;2.67;;;12.70;99.90;;;;;;5104444;28;20369;-51
2022/12/10 04:37:07;;;;;;;7.10;3.10;;;12.70;99.90;;;;;;5107857;28;20023;-51
2022/12/10 04:39:34;;;;;;;14.23;3.42;;;12.60;99.90;;;;;;5064372;28;20051;-51
2022/12/10 04:42:01;;;;;;;10.00;2.83;;;12.70;99.90;;;;;;5106742;28;20593;-51
2022/12/10 04:44:26;;;;;;;5.10;2.65;;;12.70;99.90;;;;;;5065774;28;20063;-51
2022/12/10 04:46:52;;;;;;;7.30;2.85;;;12.70;99.90;;;;;;5102923;28;20055;-51
2022/12/10 04:49:18;;;;;;;8.75;3.03;;;12.70;99.90;;;;;;5102299;28;20060;-52
2022/12/10 04:51:44;;;;;;;9.23;2.72;;;12.70;99.90;;;;;;5104888;28;20020;-54
2022/12/10 04:54:10;;;;;;;12.90;4.57;;;12.60;99.90;;;;;;5106311;28;20042;-51
2022/12/10 04:56:37;;;;;;;12.20;3.20;;;12.60;99.90;;;;;;5082792;28;20113;-51
2022/12/10 04:59:04;;;;;;;7.22;3.53;;;12.70;99.90;;;;;;5102562;28;20078;-51
2022/12/10 05:01:30;;;;;;;7.43;2.95;;;12.70;99.90;;;;;;5102567;28;20056;-51
2022/12/10 05:04:03;;;;;;;6.38;3.10;;;12.70;99.90;;;;;;5102736;28;20027;-50
2022/12/10 05:06:29;;;;;;;5.07;2.70;;;12.60;99.90;;;;;;5100762;28;20035;-51
2022/12/10 05:08:55;;;;;;;8.45;3.53;;;12.70;99.90;;;;;;5102011;28;20028;-51
2022/12/10 05:11:24;;;;;;;7.38;2.63;;;12.60;99.90;;;;;;5104658;28;20031;-51
2022/12/10 05:13:51;;;;;;;8.25;2.40;;;12.70;99.90;;;;;;5081361;28;20552;-51
2022/12/10 05:16:19;;;;;;;9.60;2.17;;;12.80;99.90;;;;;;5099591;28;20019;-51
2022/12/10 05:18:45;;;;;;;7.88;2.50;;;12.90;99.90;;;;;;5104612;28;20043;-51
2022/12/10 05:21:14;;;;;;;5.05;2.58;;;13.00;99.90;;;;;;5110430;28;20459;-51
2022/12/10 05:23:42;;;;;;;5.43;2.75;;;13.00;99.90;;;;;;5106316;28;20086;-53
2022/12/10 05:26:12;;;;;;;5.20;1.65;;;13.00;99.90;;;;;;5105358;28;20455;-50
2022/12/10 05:28:40;;;;;;;7.45;2.65;;;13.10;99.90;;;;;;5103096;28;20532;-53
2022/12/10 05:31:15;;;;;;;4.07;2.25;;;13.10;99.90;;;;;;5110635;28;20027;-54
2022/12/10 05:33:41;;;;;;;5.95;1.88;;;13.20;99.90;;;;;;5103635;28;20027;-51
2022/12/10 05:36:09;;;;;;;6.97;2.10;;;13.20;99.90;;;;;;5089837;28;20114;-52
2022/12/10 05:38:35;;;;;;;4.35;1.98;;;13.20;99.90;;;;;;5104404;28;20488;-53
2022/12/10 05:41:05;;;;;;;3.75;2.38;;;13.20;99.90;;;;;;5106764;28;20069;-51
2022/12/10 05:43:32;;;;;;;6.00;3.55;;;13.20;99.90;;;;;;5107814;28;20044;-52
2022/12/10 05:46:02;;;;;;;5.07;2.63;;;13.20;99.90;;;;;;5102834;28;20028;-53
2022/12/10 05:48:28;;;;;;;4.45;1.65;;;13.20;99.90;;;;;;5101841;28;20050;-52
2022/12/10 05:50:54;;;;;;;3.47;1.67;;;13.20;99.90;;;;;;5102070;28;20047;-52
2022/12/10 05:53:20;;;;;;;4.43;2.22;;;13.40;99.90;;;;;;5084249;28;20044;-51
2022/12/10 05:55:46;;;;;;;6.25;2.00;;;13.40;99.90;;;;;;5102576;28;20412;-51
2022/12/10 05:58:11;;;;;;;4.30;1.92;;;13.30;99.90;;;;;;5105751;28;20063;-51
2022/12/10 06:00:40;;;;;;;6.78;2.33;;;13.00;99.90;;;;;;5100865;28;20173;-53
2022/12/10 06:03:06;;;;;;;3.85;2.08;;;12.90;99.90;;;;;;5105235;28;20479;-52
2022/12/10 06:05:39;;;;;;;6.78;2.40;;;12.80;99.90;;;;;;5098587;28;20115;-52
2022/12/10 06:08:06;;;;;;;6.43;3.53;;;12.80;99.90;;;;;;5110849;28;20336;-52
2022/12/10 06:10:34;;;;;;;7.18;3.20;;;12.70;99.90;;;;;;5090154;28;20047;-53
2022/12/10 06:13:00;;;;;;;6.00;3.00;;;12.80;99.90;;;;;;5107638;28;20066;-52
2022/12/10 06:15:25;;;;;;;9.45;3.83;;;12.80;99.90;;;;;;5103439;28;20055;-51
2022/12/10 06:17:51;;;;;;;8.90;4.30;;;12.80;99.90;;;;;;5087308;28;20036;-52
2022/12/10 06:20:17;;;;;;;9.90;3.78;;;12.80;99.90;;;;;;5104858;28;20036;-52
2022/12/10 06:22:43;;;;;;;9.90;4.53;;;12.80;99.90;;;;;;5107071;27;20131;-52
2022/12/10 06:25:08;;;;;;;29.70;10.30;;;12.80;99.90;;;;;;5107430;28;20031;-51
2022/12/10 06:27:34;;;;;;;13.05;4.68;;;12.80;99.90;;;;;;5111765;28;20028;-51
2022/12/10 06:30:00;;;;;;;8.80;4.88;;;12.70;99.90;;;;;;5097619;28;20040;-52
2022/12/10 06:32:26;;;;;;;10.85;5.20;;;12.70;99.90;;;;;;5083335;28;20036;-52
2022/12/10 06:34:51;;;;;;;8.45;4.68;;;12.70;99.90;;;;;;5102980;27;20066;-52
2022/12/10 06:37:17;;;;;;;8.60;5.18;;;12.70;99.90;;;;;;5109235;28;20035;-51
2022/12/10 06:39:43;;;;;;;9.43;4.63;;;12.90;99.90;;;;;;5087902;28;20040;-52
2022/12/10 06:42:09;;;;;;;9.18;4.70;;;12.90;99.90;;;;;;5104497;28;20048;-52
2022/12/10 06:44:34;;;;;;;10.05;5.63;;;13.00;99.90;;;;;;5110710;28;20036;-52
2022/12/10 06:47:00;;;;;;;11.73;7.97;;;13.00;99.90;;;;;;5098532;28;20072;-52
2022/12/10 06:49:26;;;;;;;8.80;5.55;;;13.20;99.90;;;;;;5106006;28;20110;-53
2022/12/10 06:51:52;;;;;;;10.80;5.85;;;13.20;99.90;;;;;;5110303;28;20108;-52
2022/12/10 06:54:17;;;;;;;12.63;6.28;;;13.40;99.90;;;;;;5110263;28;20038;-52
2022/12/10 06:56:43;;;;;;;13.13;6.68;;;13.50;99.90;;;;;;5108682;28;20051;-52
2022/12/10 06:59:09;;;;;;;13.27;6.97;;;13.50;99.90;;;;;;5109193;28;20089;-52
2022/12/10 07:01:37;;;;;;;9.50;5.45;;;13.70;99.90;;;;;;5103156;27;20078;-52
2022/12/10 07:04:03;;;;;;;9.05;6.00;;;13.70;99.90;;;;;;5103989;28;20032;-53
2022/12/10 07:06:32;;;;;;;14.10;9.55;;;13.70;99.90;;;;;;5101724;28;20540;-57
2022/12/10 07:08:57;;;;;;;18.15;11.43;;;13.80;99.90;;;;;;5103652;27;20021;-61
2022/12/10 07:11:25;;;;;;;16.95;8.27;;;13.80;99.90;;;;;;5105553;28;20111;-61
2022/12/10 07:13:51;;;;;;;13.27;8.82;;;13.70;99.90;;;;;;5104290;28;20500;-60
2022/12/10 07:16:23;;;;;;;19.75;10.93;;;13.70;99.90;;;;;;5098433;28;20464;-61
2022/12/10 07:18:50;;;;;;;16.55;8.82;;;13.90;99.90;;;;;;5103254;28;20032;-61
2022/12/10 07:21:17;;;;;;;17.92;8.02;;;13.60;99.90;;;;;;5102623;28;20085;-60
2022/12/10 07:23:43;;;;;;;19.75;11.55;;;13.60;99.90;;;;;;5101950;27;20024;-59
2022/12/10 07:26:09;;;;;;;20.08;10.77;;;13.70;99.90;;;;;;5097793;28;20543;-60
2022/12/10 07:28:35;;;;;;;16.33;7.72;;;13.80;99.90;;;;;;5108327;28;20044;-60
2022/12/10 07:31:02;;;;;;;10.45;7.45;;;14.10;99.90;;;;;;5104708;28;20519;-60
2022/12/10 07:33:28;;;;;;;19.52;10.10;;;13.90;99.90;;;;;;5102408;28;20476;-60
2022/12/10 07:35:56;;;;;;;11.98;6.65;;;13.60;99.90;;;;;;5101919;28;20028;-60
2022/12/10 07:38:23;;;;;;;12.82;7.40;;;13.50;99.90;;;;;;5097477;28;20391;-61
2022/12/10 07:40:49;;;;;;;12.63;7.43;;;13.40;99.90;;;;;;5104759;28;20035;-60
2022/12/10 07:43:15;;;;;;;20.85;13.27;;;13.20;99.90;;;;;;5101336;28;20046;-61
2022/12/10 07:45:41;;;;;;;12.85;8.10;;;13.20;99.90;;;;;;5102913;28;20379;-61
2022/12/10 07:48:07;;;;;;;18.13;10.25;;;13.10;99.90;;;;;;5103970;28;20024;-62
2022/12/10 07:50:32;;;;;;;14.10;9.10;;;13.10;99.90;;;;;;5098016;28;20063;-60
2022/12/10 07:52:58;;;;;;;15.77;8.60;;;12.90;99.90;;;;;;5101106;27;20028;-61
2022/12/10 07:55:24;;;;;;;14.25;8.63;;;12.80;99.90;;;;;;5099950;27;20015;-61
2022/12/10 07:57:50;;;;;;;13.27;6.75;;;12.90;99.90;;;;;;5103788;28;20038;-62
2022/12/10 08:00:16;;;;;;;14.88;7.45;;;12.80;99.90;;;;;;5101411;27;20055;-61
2022/12/10 08:02:41;;;;;;;16.02;9.10;;;12.60;99.90;;;;;;5104121;27;20136;-61
2022/12/10 08:05:07;;;;;;;17.23;7.43;;;12.90;99.90;;;;;;5102051;27;20031;-60
2022/12/10 08:07:34;;;;;;;15.60;9.40;;;13.10;99.90;;;;;;5104867;28;20559;-60
2022/12/10 08:09:59;;;;;;;17.83;10.82;;;13.30;99.90;;;;;;5096956;28;20057;-63
2022/12/10 08:12:25;;;;;;;27.08;14.32;;;13.30;99.90;;;;;;5093285;28;20027;-62
2022/12/10 08:14:51;;;;;;;29.50;15.75;;;13.20;99.90;;;;;;5103454;28;20019;-62
2022/12/10 08:17:17;;;;;;;20.90;13.00;;;13.40;99.90;;;;;;5099128;28;20024;-60
2022/12/10 08:19:42;;;;;;;22.92;11.60;;;13.50;99.90;;;;;;5101023;28;20028;-60
2022/12/10 08:22:08;;;;;;;24.13;12.05;;;13.30;99.90;;;;;;5087661;28;20130;-65
2022/12/10 08:24:34;;;;;;;21.88;10.82;;;13.40;99.90;;;;;;5100417;28;20112;-64
2022/12/10 08:27:00;;;;;;;17.70;11.18;;;13.50;99.90;;;;;;5117360;27;20056;-61
2022/12/10 08:29:26;;;;;;;13.98;8.68;;;13.90;99.90;;;;;;5098548;28;20063;-59
2022/12/10 08:31:52;;;;;;;23.90;14.45;;;13.80;99.90;;;;;;5116181;27;20032;-65
2022/12/10 08:34:19;;;;;;;19.98;10.85;;;;;;;;;;5100114;28;20043;-64
2022/12/10 08:36:45;;;;;;;18.85;12.20;;;;;;;;;;5097387;28;20036;-59
2022/12/10 08:39:15;;;;;;;16.45;11.57;;;;;;;;;;5104540;28;20433;-65
2022/12/10 08:41:41;;;;;;;18.85;12.55;;;;;;;;;;5094871;28;20031;-69
2022/12/10 08:44:07;;;;;;;23.30;11.02;;;19.10;99.90;;;;;;5102779;28;20112;-67
2022/12/10 08:46:33;;;;;;;17.02;11.27;;;;;;;;;;5098993;28;20067;-63
2022/12/10 08:48:59;;;;;;;21.10;13.30;;;17.90;99.90;;;;;;5102913;27;20055;-63
2022/12/10 08:51:25;;;;;;;15.68;9.38;;;19.40;99.90;;;;;;5078754;28;20036;-58
2022/12/10 08:53:51;;;;;;;15.65;9.80;;;19.70;99.90;;;;;;5106992;28;20398;-60
2022/12/10 08:56:17;;;;;;;15.35;10.27;;;19.70;99.90;;;;;;5102056;28;20026;-59
2022/12/10 08:58:43;;;;;;;21.17;11.27;;;19.20;99.90;;;;;;5103261;28;20036;-56
2022/12/10 09:01:13;;;;;;;16.20;10.60;;;19.00;99.90;;;;;;5101288;28;20023;-57
2022/12/10 09:03:39;;;;;;;21.75;11.07;;;18.60;99.90;;;;;;5080063;28;20070;-56
2022/12/10 09:06:08;;;;;;;23.83;11.75;;;18.30;99.90;;;;;;5132508;27;20031;-58
2022/12/10 09:08:34;;;;;;;22.50;16.02;;;17.90;99.90;;;;;;5096834;28;20028;-54
2022/12/10 09:11:08;;;;;;;30.40;20.92;;;;;;;;;;5099012;28;20074;-56
2022/12/10 09:13:33;;;;;;;24.17;11.70;;;16.80;99.90;;;;;;5104118;28;20021;-58
2022/12/10 09:15:59;;;;;;;25.00;13.82;;;;;;;;;;5098286;28;20086;-57
2022/12/10 09:18:25;;;;;;;43.33;22.88;;;16.00;99.90;;;;;;5103030;28;20028;-58
2022/12/10 09:20:51;;;;;;;33.17;17.55;;;16.20;99.90;;;;;;5096857;28;20031;-53
2022/12/10 09:23:17;;;;;;;30.85;15.48;;;16.30;99.90;;;;;;5099362;28;20036;-55
2022/12/10 09:25:42;;;;;;;20.70;12.25;;;16.80;99.90;;;;;;5095793;28;20024;-57
2022/12/10 09:28:08;;;;;;;27.05;14.75;;;16.90;99.90;;;;;;5073681;28;20042;-54
2022/12/10 09:30:34;;;;;;;22.23;12.45;;;;;;;;;;5096286;28;20039;-54
2022/12/10 09:33:00;;;;;;;17.50;11.75;;;17.10;99.90;;;;;;5097579;28;20024;-57
2022/12/10 09:35:26;;;;;;;19.77;12.80;;;17.40;99.90;;;;;;5105480;28;20034;-57
2022/12/10 09:37:52;;;;;;;20.55;12.07;;;17.70;99.90;;;;;;5105626;28;20028;-56
2022/12/10 09:40:22;;;;;;;20.13;10.73;;;;;;;;;;5098464;28;20031;-56
2022/12/10 09:42:54;;;;;;;20.27;10.52;;;;;;;;;;5100456;28;20124;-54
2022/12/10 09:45:27;;;;;;;15.48;8.98;;;;;;;;;;5103396;28;20020;-56
2022/12/10 09:48:05;;;;;;;18.52;9.35;;;;;;;;;;5099357;28;20062;-55
2022/12/10 09:50:42;;;;;;;14.70;7.82;;;19.70;99.90;;;;;;5097168;28;20024;-57
2022/12/10 09:53:15;;;;;;;15.60;8.80;;;19.60;99.90;;;;;;5104230;28;20034;-56
2022/12/10 09:55:44;;;;;;;15.55;8.90;;;;;;;;;;5099268;28;20069;-57
2022/12/10 09:58:17;;;;;;;28.58;13.57;;;19.90;99.90;;;;;;5102428;28;20376;-54
2022/12/10 10:00:46;;;;;;;26.70;14.93;;;20.00;99.90;;;;;;5097212;28;20456;-57
2022/12/10 10:03:14;;;;;;;12.82;8.38;;;19.80;99.90;;;;;;5107442;28;20495;-56
2022/12/10 10:05:46;;;;;;;22.17;11.77;;;19.50;99.90;;;;;;5105575;28;20053;-57
2022/12/10 10:08:17;;;;;;;15.60;10.55;;;19.50;99.90;;;;;;5101513;28;20475;-57
2022/12/10 10:10:45;;;;;;;15.87;8.53;;;;;;;;;;5098043;28;20073;-54
2022/12/10 10:13:45;;;;;;;27.35;12.77;;;20.20;99.90;;;;;;5106949;28;20023;-56
2022/12/10 10:16:24;;;;;;;22.00;13.65;;;20.00;99.90;;;;;;5048294;28;20037;-57
2022/12/10 10:19:04;;;;;;;14.50;9.40;;;20.20;99.90;;;;;;5047669;28;20073;-53
2022/12/10 10:21:39;;;;;;;13.85;8.45;;;20.10;99.90;;;;;;5055234;28;20052;-56
2022/12/10 10:24:09;;;;;;;15.38;9.65;;;20.50;99.90;;;;;;5039067;28;20040;-56
2022/12/10 10:26:35;;;;;;;17.73;10.20;;;20.50;99.90;;;;;;5040039;28;20037;-57
2022/12/10 10:29:04;;;;;;;14.00;9.60;;;;;;;;;;5041400;28;20118;-54
2022/12/10 10:31:32;;;;;;;13.95;8.70;;;21.30;99.90;;;;;;5040977;28;20083;-54
2022/12/10 10:33:59;;;;;;;14.95;8.63;;;;;;;;;;5047793;28;20555;-56
2022/12/10 10:36:32;;;;;;;14.38;9.45;;;;;;;;;;5057154;28;20044;-56
2022/12/10 10:39:28;;;;;;;16.83;10.55;;;21.90;99.90;;;;;;5051819;28;20060;-55
2022/12/10 10:41:56;;;;;;;13.43;7.78;;;23.10;99.90;;;;;;5035509;28;20044;-56
2022/12/10 10:44:25;;;;;;;15.10;8.57;;;22.30;99.90;;;;;;5040330;28;20057;-56
2022/12/10 10:46:53;;;;;;;11.57;7.68;;;22.10;99.90;;;;;;5036281;28;20072;-54
2022/12/10 10:49:19;;;;;;;18.42;9.13;;;;;;;;;;5037662;28;20052;-53
2022/12/10 10:51:46;;;;;;;13.35;7.88;;;;;;;;;;5063836;28;20069;-52
2022/12/10 10:54:11;;;;;;;14.95;9.88;;;22.70;99.90;;;;;;5090904;28;20111;-52
2022/12/10 10:56:42;;;;;;;13.90;9.35;;;22.70;99.90;;;;;;5088369;28;20170;-53
2022/12/10 10:59:16;;;;;;;12.15;8.18;;;22.90;99.90;;;;;;5090011;28;20035;-56
2022/12/10 11:02:04;;;;;;;12.93;9.63;;;22.40;99.90;;;;;;5089025;28;20423;-58
2022/12/10 11:04:37;;;;;;;15.27;7.90;;;22.60;99.90;;;;;;5088188;28;20040;-57
2022/12/10 11:07:04;;;;;;;22.70;15.00;;;;;;;;;;5089781;28;20518;-58
2022/12/10 11:09:33;;;;;;;14.05;7.82;;;23.20;99.90;;;;;;5088845;28;20396;-55
2022/12/10 11:12:05;;;;;;;14.50;7.40;;;22.70;99.90;;;;;;5089366;28;20024;-58
2022/12/10 11:14:37;;;;;;;23.38;9.70;;;21.80;99.90;;;;;;5089352;28;20044;-57
2022/12/10 11:17:19;;;;;;;13.40;7.50;;;22.00;99.90;;;;;;5057724;28;20039;-53
2022/12/10 11:19:54;;;;;;;11.48;7.00;;;21.50;99.90;;;;;;5088134;28;20089;-56
2022/12/10 11:22:25;;;;;;;14.65;7.22;;;21.70;99.90;;;;;;5086092;28;20649;-55
2022/12/10 11:24:52;;;;;;;13.15;7.65;;;;;;;;;;5086489;28;20168;-53
2022/12/10 11:27:44;;;;;;;12.95;7.95;;;21.00;99.90;;;;;;5099087;28;20567;-53
2022/12/10 11:30:22;;;;;;;13.40;8.48;;;21.00;99.90;;;;;;5102194;28;20039;-60
2022/12/10 11:33:13;;;;;;;15.18;8.57;;;20.90;99.90;;;;;;5106785;28;20081;-56
2022/12/10 11:35:57;;;;;;;20.70;8.30;;;20.40;99.90;;;;;;5092092;28;20086;-55
2022/12/10 11:38:32;;;;;;;13.40;8.13;;;20.30;99.90;;;;;;5101020;28;20039;-60
2022/12/10 11:41:11;;;;;;;15.02;7.57;;;;;;;;;;5100075;28;20377;-54
2022/12/10 11:43:57;;;;;;;16.05;8.30;;;;;;;;;;5102052;28;20038;-56
2022/12/10 11:46:41;;;;;;;13.90;7.65;;;18.70;99.90;;;;;;5103996;28;20036;-52
2022/12/10 11:49:39;;;;;;;16.92;8.10;;;18.50;99.90;;;;;;5099718;28;20039;-57
2022/12/10 11:52:20;;;;;;;13.50;8.45;;;18.10;99.90;;;;;;5047841;28;20614;-57
2022/12/10 11:54:56;;;;;;;14.07;9.25;;;18.20;99.90;;;;;;5057568;28;20040;-62
2022/12/10 11:57:46;;;;;;;15.57;8.77;;;18.30;99.90;;;;;;5065674;28;20135;-59
2022/12/10 12:00:20;;;;;;;15.13;9.90;;;;;;;;;;5067791;28;20026;-57
2022/12/10 12:03:01;;;;;;;16.83;9.85;;;;;;;;;;5033968;28;20048;-59
2022/12/10 12:05:42;;;;;;;15.48;10.95;;;;;;;;;;5061019;28;20458;-58
2022/12/10 12:08:26;;;;;;;14.98;9.57;;;17.90;99.90;;;;;;5065911;28;20454;-57
2022/12/10 12:10:51;;;;;;;16.27;9.30;;;17.80;99.90;;;;;;5062253;28;20127;-62
2022/12/10 12:13:29;;;;;;;27.00;19.08;;;17.50;99.90;;;;;;5068914;28;20025;-58
2022/12/10 12:16:03;;;;;;;22.15;13.70;;;17.50;99.90;;;;;;5066970;28;20123;-57
2022/12/10 12:18:50;;;;;;;23.75;14.85;;;17.50;99.90;;;;;;5068945;28;20037;-60
2022/12/10 12:21:17;;;;;;;21.38;14.13;;;17.60;99.90;;;;;;5064508;28;20035;-60
2022/12/10 12:24:08;;;;;;;23.40;14.23;;;17.30;99.90;;;;;;5061877;28;20499;-58
2022/12/10 12:26:41;;;;;;;22.30;14.45;;;17.50;99.90;;;;;;5066094;28;20036;-54
2022/12/10 12:29:30;;;;;;;21.67;13.18;;;17.70;99.90;;;;;;5075087;28;20126;-55
2022/12/10 12:32:09;;;;;;;20.70;12.50;;;17.70;99.90;;;;;;5100973;28;20563;-59
2022/12/10 12:35:06;;;;;;;17.52;9.57;;;17.50;99.90;;;;;;5097560;28;20035;-56
2022/12/10 12:38:00;;;;;;;16.48;8.57;;;17.60;99.90;;;;;;5092321;28;20028;-57
2022/12/10 12:40:40;;;;;;;14.30;8.70;;;17.50;99.90;;;;;;5069079;28;20041;-61
2022/12/10 12:43:15;;;;;;;13.68;9.75;;;17.70;99.90;;;;;;5068045;28;20055;-57
2022/12/10 12:45:45;;;;;;;17.15;11.32;;;17.70;99.90;;;;;;5068426;28;20097;-58
2022/12/10 12:48:48;;;;;;;17.33;11.70;;;17.80;99.90;;;;;;5068974;28;20048;-57
2022/12/10 12:51:32;;;;;;;21.65;11.57;;;17.70;99.90;;;;;;5068596;28;20043;-58
2022/12/10 12:53:58;;;;;;;18.27;12.60;;;17.60;99.90;;;;;;5067257;28;20637;-56
2022/12/10 12:56:44;;;;;;;20.70;12.82;;;17.50;99.90;;;;;;5068336;28;20060;-56
2022/12/10 12:59:29;;;;;;;26.25;14.35;;;17.40;99.90;;;;;;5068603;28;20177;-55
2022/12/10 13:02:22;;;;;;;23.55;14.88;;;17.30;99.90;;;;;;5066409;28;20071;-59
2022/12/10 13:04:49;;;;;;;27.60;16.10;;;17.10;99.90;;;;;;5067667;28;20076;-59
2022/12/10 13:07:15;;;;;;;25.52;17.10;;;17.00;99.90;;;;;;5066328;28;20104;-58
2022/12/10 13:10:07;;;;;;;25.27;17.95;;;16.90;99.90;;;;;;5068002;28;20455;-53